Time;durP1;ratioP1;P1;durP2;ratioP2;P2;SDS_P1;SDS_P2;PMS_P1;PMS_P2;Temp;Humidity;BMP_temperature;BMP_pressure;BME280_temperature;BME280_humidity;BME280_pressure;Samples;Min_cycle;Max_cycle;Signal;HPM_P1;HPM_P2
2023/09/17 00:01:10;;;;;;;25.27;22.88;;;18.20;99.90;;;;;;5042262;28;20072;-90
2023/09/17 00:03:36;;;;;;;24.85;22.55;;;18.20;99.90;;;;;;5025651;28;20508;-90
2023/09/17 00:06:02;;;;;;;25.15;22.58;;;18.20;99.90;;;;;;5023409;28;20034;-89
2023/09/17 00:08:27;;;;;;;19.73;14.15;;;18.30;99.90;;;;;;5041857;28;20036;-89
2023/09/17 00:10:53;;;;;;;24.60;22.40;;;18.20;99.90;;;;;;5025281;28;20745;-89
2023/09/17 00:13:19;;;;;;;23.33;21.10;;;18.10;99.90;;;;;;5023345;28;20099;-90
2023/09/17 00:15:45;;;;;;;24.70;22.45;;;18.20;99.90;;;;;;5039789;28;20048;-90
2023/09/17 00:18:12;;;;;;;23.38;21.08;;;18.20;99.90;;;;;;5024775;28;20041;-90
2023/09/17 00:20:37;;;;;;;24.95;22.58;;;18.20;99.90;;;;;;5020879;28;20121;-91
2023/09/17 00:23:03;;;;;;;23.67;21.50;;;18.30;99.90;;;;;;5017482;28;20510;-90
2023/09/17 00:25:29;;;;;;;24.73;22.33;;;18.20;99.90;;;;;;5036627;28;20044;-89
2023/09/17 00:27:54;;;;;;;22.85;20.75;;;18.30;99.90;;;;;;5037796;28;20090;-91
2023/09/17 00:30:20;;;;;;;24.73;22.50;;;18.20;99.90;;;;;;5036936;28;20091;-91
2023/09/17 00:32:45;;;;;;;23.10;20.73;;;18.20;99.90;;;;;;5038043;28;20032;-90
2023/09/17 00:35:14;;;;;;;22.95;20.75;;;18.20;99.90;;;;;;5028978;28;20068;-91
2023/09/17 00:37:41;;;;;;;23.83;21.52;;;18.20;99.90;;;;;;5037367;28;20044;-91
2023/09/17 00:40:11;;;;;;;21.52;16.50;;;18.20;99.90;;;;;;5020981;28;20447;-90
2023/09/17 00:42:37;;;;;;;23.75;21.50;;;18.20;99.90;;;;;;5039347;28;20021;-90
2023/09/17 00:45:04;;;;;;;22.90;20.70;;;18.20;99.90;;;;;;5039055;28;20090;-90
2023/09/17 00:47:31;;;;;;;24.13;21.73;;;18.20;99.90;;;;;;5027448;28;20053;-91
2023/09/17 00:49:57;;;;;;;22.38;20.15;;;18.20;99.90;;;;;;5034258;28;20119;-90
2023/09/17 00:52:23;;;;;;;25.73;23.17;;;18.20;99.90;;;;;;5022356;28;20048;-90
2023/09/17 00:54:51;;;;;;;20.23;17.02;;;18.20;99.90;;;;;;5013706;28;20412;-90
2023/09/17 00:57:17;;;;;;;22.52;20.42;;;18.10;99.90;;;;;;5029353;28;20073;-90
2023/09/17 00:59:44;;;;;;;23.98;21.58;;;18.10;99.90;;;;;;5020607;28;20041;-90
2023/09/17 01:02:11;;;;;;;24.67;22.27;;;18.20;99.90;;;;;;5020765;28;20059;-90
2023/09/17 01:04:40;;;;;;;25.60;23.20;;;18.20;99.90;;;;;;5037913;28;20573;-90
2023/09/17 01:07:07;;;;;;;24.25;21.92;;;18.20;99.90;;;;;;5019848;28;20036;-90
2023/09/17 01:09:33;;;;;;;22.17;20.00;;;18.20;99.90;;;;;;5032593;28;20132;-91
2023/09/17 01:11:59;;;;;;;21.73;19.50;;;18.20;99.90;;;;;;5020218;28;20044;-90
2023/09/17 01:14:24;;;;;;;21.52;19.35;;;18.20;99.90;;;;;;5036923;28;20061;-91
2023/09/17 01:16:51;;;;;;;21.98;19.45;;;18.20;99.90;;;;;;5036368;28;20041;-90
2023/09/17 01:19:28;;;;;;;21.02;18.92;;;18.20;99.90;;;;;;5019723;28;20087;-91
2023/09/17 01:22:11;;;;;;;21.98;19.77;;;18.20;99.90;;;;;;5036133;28;20033;-90
2023/09/17 01:24:54;;;;;;;21.98;19.75;;;18.20;99.90;;;;;;5036748;28;20036;-91
2023/09/17 01:27:20;;;;;;;14.13;10.57;;;18.20;99.90;;;;;;5020147;28;20429;-90
2023/09/17 01:29:46;;;;;;;20.38;18.38;;;18.10;99.90;;;;;;5035722;28;20048;-90
2023/09/17 01:32:13;;;;;;;19.55;17.65;;;18.10;99.90;;;;;;5035646;28;20041;-91
2023/09/17 01:34:45;;;;;;;19.25;17.25;;;18.10;99.90;;;;;;5018179;28;20045;-90
2023/09/17 01:37:23;;;;;;;20.88;18.73;;;18.10;99.90;;;;;;5033788;28;20119;-90
2023/09/17 01:40:12;;;;;;;18.95;17.00;;;18.10;99.90;;;;;;5035050;28;20045;-91
2023/09/17 01:42:40;;;;;;;20.25;18.25;;;18.10;99.90;;;;;;5019076;28;20067;-90
2023/09/17 01:45:09;;;;;;;16.73;11.77;;;18.10;99.90;;;;;;5018923;28;20045;-90
2023/09/17 01:47:35;;;;;;;19.65;17.67;;;18.00;99.90;;;;;;5019166;28;20086;-90
2023/09/17 01:50:04;;;;;;;18.92;16.88;;;18.10;99.90;;;;;;5019806;28;20465;-90
2023/09/17 01:52:32;;;;;;;20.90;18.90;;;18.10;99.90;;;;;;5019559;28;20056;-90
2023/09/17 01:55:02;;;;;;;20.17;17.80;;;18.10;99.90;;;;;;5035436;28;20052;-90
2023/09/17 01:57:28;;;;;;;20.17;18.10;;;18.10;99.90;;;;;;5035709;28;20037;-90
2023/09/17 01:59:54;;;;;;;20.10;17.95;;;18.10;99.90;;;;;;5036148;28;20025;-90
2023/09/17 02:02:21;;;;;;;21.20;18.92;;;18.00;99.90;;;;;;5035401;28;20496;-90
2023/09/17 02:04:47;;;;;;;21.85;19.63;;;18.00;99.90;;;;;;5036153;28;20045;-89
2023/09/17 02:07:15;;;;;;;20.88;18.25;;;18.00;99.90;;;;;;5018613;28;20045;-90
2023/09/17 02:09:40;;;;;;;21.17;18.70;;;18.00;99.90;;;;;;5035382;28;20044;-90
2023/09/17 02:12:06;;;;;;;20.83;18.73;;;18.00;99.90;;;;;;5019188;28;20095;-90
2023/09/17 02:14:31;;;;;;;22.30;20.20;;;18.00;99.90;;;;;;5035706;28;20124;-90
2023/09/17 02:16:57;;;;;;;20.55;18.52;;;17.90;99.90;;;;;;5034544;28;20049;-89
2023/09/17 02:19:25;;;;;;;17.00;12.90;;;17.90;99.90;;;;;;5018304;28;20048;-90
2023/09/17 02:21:53;;;;;;;21.17;18.73;;;17.90;99.90;;;;;;5034866;28;20043;-90
2023/09/17 02:24:19;;;;;;;20.35;18.23;;;17.90;99.90;;;;;;5018707;28;20079;-89
2023/09/17 02:26:46;;;;;;;23.05;19.35;;;17.90;99.90;;;;;;5035489;28;20412;-89
2023/09/17 02:29:12;;;;;;;21.67;19.52;;;17.90;99.90;;;;;;5018079;28;20121;-90
2023/09/17 02:31:37;;;;;;;21.52;19.45;;;17.90;99.90;;;;;;5034905;28;20120;-90
2023/09/17 02:34:03;;;;;;;22.35;20.15;;;17.90;99.90;;;;;;5035661;28;20040;-90
2023/09/17 02:36:30;;;;;;;17.88;13.45;;;17.90;99.90;;;;;;5035224;28;20416;-89
2023/09/17 02:38:56;;;;;;;21.73;19.52;;;17.90;99.90;;;;;;5033888;28;20033;-90
2023/09/17 02:41:22;;;;;;;20.25;14.70;;;17.90;99.90;;;;;;5018648;28;20036;-90
2023/09/17 02:43:48;;;;;;;22.35;20.15;;;17.90;99.90;;;;;;5018737;28;20043;-90
2023/09/17 02:46:13;;;;;;;21.10;19.05;;;17.90;99.90;;;;;;5035401;28;20033;-90
2023/09/17 02:48:39;;;;;;;21.48;19.20;;;17.90;99.90;;;;;;5017889;28;20072;-90
2023/09/17 02:51:04;;;;;;;21.65;19.50;;;17.90;99.90;;;;;;5034807;28;20132;-90
2023/09/17 02:53:30;;;;;;;18.63;13.70;;;17.90;99.90;;;;;;5033844;28;20045;-90
2023/09/17 02:55:57;;;;;;;20.65;18.45;;;17.90;99.90;;;;;;5034317;28;20043;-90
2023/09/17 02:58:23;;;;;;;21.80;19.60;;;17.90;99.90;;;;;;5033745;28;20048;-89
2023/09/17 03:00:49;;;;;;;21.30;14.68;;;17.90;99.90;;;;;;5017406;28;20047;-90
2023/09/17 03:03:15;;;;;;;22.05;19.70;;;17.90;99.90;;;;;;5033912;28;20045;-90
2023/09/17 03:05:46;;;;;;;21.25;19.00;;;17.90;99.90;;;;;;5033757;28;20127;-90
2023/09/17 03:08:12;;;;;;;16.83;12.32;;;17.90;99.90;;;;;;5017559;28;20045;-90
2023/09/17 03:10:41;;;;;;;21.23;19.05;;;17.90;99.90;;;;;;5034921;28;20063;-90
2023/09/17 03:13:12;;;;;;;22.20;20.00;;;17.90;99.90;;;;;;5017543;28;20068;-90
2023/09/17 03:15:38;;;;;;;23.95;21.52;;;18.00;99.90;;;;;;5034549;28;20495;-89
2023/09/17 03:18:04;;;;;;;20.38;13.52;;;17.90;99.90;;;;;;5017790;28;20041;-90
2023/09/17 03:20:33;;;;;;;23.23;20.83;;;17.90;99.90;;;;;;5034002;28;20033;-89
2023/09/17 03:23:02;;;;;;;20.92;18.75;;;17.90;99.90;;;;;;5034320;28;20041;-90
2023/09/17 03:25:29;;;;;;;21.45;19.25;;;18.00;99.90;;;;;;5034518;28;20069;-90
2023/09/17 03:27:55;;;;;;;20.02;13.88;;;18.00;99.90;;;;;;5017704;28;20049;-90
2023/09/17 03:30:21;;;;;;;24.15;21.65;;;17.90;99.90;;;;;;5033976;28;20048;-91
2023/09/17 03:32:46;;;;;;;23.35;21.08;;;17.90;99.90;;;;;;5033656;28;20150;-90
2023/09/17 03:35:12;;;;;;;24.23;21.67;;;18.00;99.90;;;;;;5017256;28;20756;-90
2023/09/17 03:37:38;;;;;;;24.02;21.70;;;18.00;99.90;;;;;;5016819;28;20079;-90
2023/09/17 03:40:10;;;;;;;22.52;20.23;;;18.00;99.90;;;;;;5033313;28;20476;-90
2023/09/17 03:42:36;;;;;;;24.90;22.60;;;18.00;99.90;;;;;;5033374;28;20045;-90
2023/09/17 03:45:05;;;;;;;19.85;14.27;;;17.90;99.90;;;;;;5017846;28;20037;-90
2023/09/17 03:47:34;;;;;;;25.30;22.75;;;17.90;99.90;;;;;;5033881;28;20086;-90
2023/09/17 03:50:00;;;;;;;23.75;21.42;;;17.90;99.90;;;;;;5017905;28;20385;-90
2023/09/17 03:52:29;;;;;;;21.95;14.52;;;17.90;99.90;;;;;;5033756;28;20510;-90
2023/09/17 03:54:55;;;;;;;26.15;23.50;;;17.90;99.90;;;;;;5017619;28;20052;-90
2023/09/17 03:57:21;;;;;;;26.52;24.02;;;17.90;99.90;;;;;;5033759;28;20048;-90
2023/09/17 03:59:47;;;;;;;24.73;22.33;;;17.90;99.90;;;;;;5036128;28;20407;-90
2023/09/17 04:02:13;;;;;;;26.98;24.27;;;17.90;99.90;;;;;;5037439;28;20051;-90
2023/09/17 04:04:39;;;;;;;26.27;23.75;;;17.90;99.90;;;;;;5038076;28;20033;-89
2023/09/17 04:07:04;;;;;;;26.15;23.65;;;17.90;99.90;;;;;;5020482;28;20041;-90
2023/09/17 04:09:30;;;;;;;25.60;23.17;;;17.90;99.90;;;;;;5037121;28;20045;-90
2023/09/17 04:12:02;;;;;;;27.80;25.10;;;17.80;99.90;;;;;;5036882;28;20037;-90
2023/09/17 04:14:29;;;;;;;29.77;27.08;;;17.90;99.90;;;;;;5020854;28;20037;-90
2023/09/17 04:16:55;;;;;;;28.23;25.63;;;17.90;99.90;;;;;;5020892;28;20179;-90
2023/09/17 04:19:21;;;;;;;27.88;25.30;;;17.90;99.90;;;;;;5037177;28;20123;-90
2023/09/17 04:21:47;;;;;;;30.08;27.25;;;17.90;99.90;;;;;;5038199;28;20033;-89
2023/09/17 04:24:12;;;;;;;22.13;14.90;;;17.90;99.90;;;;;;5037722;28;20051;-89
2023/09/17 04:26:38;;;;;;;32.20;29.20;;;17.80;99.90;;;;;;5037823;28;20033;-89
2023/09/17 04:29:04;;;;;;;31.67;28.70;;;17.80;99.90;;;;;;5021012;28;20040;-90
2023/09/17 04:31:30;;;;;;;30.95;28.02;;;17.80;99.90;;;;;;5029419;28;20091;-91
2023/09/17 04:33:56;;;;;;;34.78;31.58;;;17.80;99.90;;;;;;5037785;28;20040;-89
2023/09/17 04:36:22;;;;;;;32.00;28.95;;;17.80;99.90;;;;;;5037693;28;20132;-90
2023/09/17 04:38:47;;;;;;;31.58;28.58;;;17.80;99.90;;;;;;5019792;28;20071;-90
2023/09/17 04:41:14;;;;;;;31.83;28.83;;;17.80;99.90;;;;;;5002165;28;20033;-90
2023/09/17 04:43:40;;;;;;;25.15;19.38;;;17.80;99.90;;;;;;5017610;28;20041;-90
2023/09/17 04:46:05;;;;;;;34.42;31.25;;;17.70;99.90;;;;;;5016986;28;20037;-90
2023/09/17 04:48:31;;;;;;;35.38;32.08;;;17.70;99.90;;;;;;5025628;28;20493;-91
2023/09/17 04:50:57;;;;;;;28.13;21.92;;;17.70;99.90;;;;;;5032948;28;20079;-90
2023/09/17 04:53:22;;;;;;;35.63;32.33;;;17.60;99.90;;;;;;5020489;28;20481;-90
2023/09/17 04:55:48;;;;;;;34.03;30.75;;;17.70;99.90;;;;;;5036672;28;20044;-91
2023/09/17 04:58:14;;;;;;;34.20;31.00;;;17.70;99.90;;;;;;5020197;28;20660;-90
2023/09/17 05:00:39;;;;;;;32.63;29.63;;;17.70;99.90;;;;;;5020603;28;20432;-90
2023/09/17 05:03:05;;;;;;;34.67;31.38;;;17.70;99.90;;;;;;5036908;28;20490;-90
2023/09/17 05:05:31;;;;;;;26.85;20.65;;;17.70;99.90;;;;;;5020137;28;20033;-90
2023/09/17 05:07:56;;;;;;;24.00;19.10;;;17.60;99.90;;;;;;5020043;28;20040;-90
2023/09/17 05:10:22;;;;;;;32.70;29.70;;;17.60;99.90;;;;;;5036526;28;20037;-89
2023/09/17 05:12:48;;;;;;;32.53;29.45;;;17.60;99.90;;;;;;5020115;28;20575;-90
2023/09/17 05:15:13;;;;;;;33.33;30.15;;;17.60;99.90;;;;;;5036524;28;20577;-90
2023/09/17 05:17:39;;;;;;;35.33;32.03;;;17.60;99.90;;;;;;5036111;28;20044;-90
2023/09/17 05:20:06;;;;;;;34.72;31.42;;;17.70;99.90;;;;;;5036582;28;20124;-90
2023/09/17 05:22:32;;;;;;;24.83;19.90;;;17.70;99.90;;;;;;5019798;28;20051;-90
2023/09/17 05:24:58;;;;;;;35.85;32.55;;;17.60;99.90;;;;;;5036965;28;20100;-89
2023/09/17 05:27:24;;;;;;;37.45;34.05;;;17.60;99.90;;;;;;5036569;28;20492;-90
2023/09/17 05:29:50;;;;;;;42.00;38.25;;;17.60;99.90;;;;;;5019927;28;20056;-89
2023/09/17 05:32:16;;;;;;;38.25;34.72;;;17.70;99.90;;;;;;5016946;28;20053;-90
2023/09/17 05:34:43;;;;;;;38.55;35.13;;;17.70;99.90;;;;;;5035171;28;20078;-90
2023/09/17 05:37:08;;;;;;;38.92;35.53;;;17.70;99.90;;;;;;5034789;28;20056;-89
2023/09/17 05:39:34;;;;;;;36.55;33.15;;;17.70;99.90;;;;;;5035099;28;20037;-89
2023/09/17 05:41:59;;;;;;;28.83;22.92;;;17.70;99.90;;;;;;5018829;28;20086;-89
2023/09/17 05:44:25;;;;;;;22.35;17.20;;;17.70;99.90;;;;;;5035521;28;20059;-89
2023/09/17 05:46:51;;;;;;;38.05;34.60;;;17.60;99.90;;;;;;5034791;28;20037;-90
2023/09/17 05:49:17;;;;;;;41.13;37.03;;;17.70;99.90;;;;;;5035705;28;20182;-90
2023/09/17 05:51:42;;;;;;;37.25;33.85;;;17.70;99.90;;;;;;5034768;28;20554;-89
2023/09/17 05:54:08;;;;;;;36.88;33.55;;;17.70;99.90;;;;;;5040050;28;20053;-91
2023/09/17 05:56:34;;;;;;;38.38;34.97;;;17.70;99.90;;;;;;5020690;28;20115;-90
2023/09/17 05:59:00;;;;;;;39.17;35.67;;;17.80;99.90;;;;;;5044457;28;20127;-90
2023/09/17 06:01:26;;;;;;;29.98;19.38;;;17.80;99.90;;;;;;5044563;28;20476;-90
2023/09/17 06:03:51;;;;;;;36.97;33.70;;;17.70;99.90;;;;;;5027620;28;20044;-90
2023/09/17 06:06:17;;;;;;;40.38;36.80;;;17.70;99.90;;;;;;5039802;28;20046;-90
2023/09/17 06:08:43;;;;;;;40.03;36.25;;;17.80;99.90;;;;;;5023286;28;20112;-90
2023/09/17 06:11:08;;;;;;;36.85;33.55;;;17.80;99.90;;;;;;5020911;28;20123;-90
2023/09/17 06:13:34;;;;;;;26.83;20.75;;;17.80;99.90;;;;;;5040396;28;20037;-90
2023/09/17 06:16:01;;;;;;;29.90;19.63;;;17.80;99.90;;;;;;5040601;28;20463;-90
2023/09/17 06:18:28;;;;;;;34.65;31.45;;;17.70;99.90;;;;;;5034572;28;20045;-90
2023/09/17 06:20:54;;;;;;;38.33;34.90;;;17.80;99.90;;;;;;5018947;28;20041;-90
2023/09/17 06:23:19;;;;;;;40.97;37.38;;;17.80;99.90;;;;;;5017538;28;20435;-89
2023/09/17 06:25:45;;;;;;;38.13;34.78;;;17.90;99.90;;;;;;5017869;28;20041;-90
2023/09/17 06:28:11;;;;;;;38.97;35.58;;;17.90;99.90;;;;;;5033889;28;20037;-90
2023/09/17 06:30:36;;;;;;;39.35;35.83;;;17.90;99.90;;;;;;5034603;28;20037;-92
2023/09/17 06:33:03;;;;;;;38.70;35.17;;;17.90;99.90;;;;;;5034676;28;20032;-91
2023/09/17 06:35:29;;;;;;;29.50;25.40;;;17.90;99.90;;;;;;5018625;28;20095;-90
2023/09/17 06:37:55;;;;;;;42.40;38.55;;;17.90;99.90;;;;;;5034535;28;20453;-90
2023/09/17 06:40:20;;;;;;;37.22;33.95;;;17.90;99.90;;;;;;5034456;28;20040;-90
2023/09/17 06:42:46;;;;;;;31.38;25.77;;;17.90;99.90;;;;;;5018274;28;20059;-90
2023/09/17 06:45:12;;;;;;;40.58;36.97;;;17.90;99.90;;;;;;5031436;28;20033;-89
2023/09/17 06:47:37;;;;;;;44.40;40.55;;;17.90;99.90;;;;;;5036654;28;20128;-90
2023/09/17 06:50:04;;;;;;;42.30;38.47;;;18.00;99.90;;;;;;5021683;28;20131;-90
2023/09/17 06:52:29;;;;;;;42.92;39.20;;;18.00;99.90;;;;;;5027044;28;20046;-89
2023/09/17 06:54:55;;;;;;;40.35;36.75;;;18.00;99.90;;;;;;5030647;28;20045;-90
2023/09/17 06:57:20;;;;;;;44.28;40.38;;;18.00;99.90;;;;;;5033313;28;20044;-90
2023/09/17 06:59:46;;;;;;;42.00;38.42;;;18.00;99.90;;;;;;5030286;28;20049;-90
2023/09/17 07:02:12;;;;;;;29.27;25.30;;;18.00;99.90;;;;;;5016980;28;20087;-90
2023/09/17 07:04:38;;;;;;;42.38;38.58;;;18.00;99.90;;;;;;5033443;28;20037;-91
2023/09/17 07:07:03;;;;;;;40.95;37.08;;;18.00;99.90;;;;;;5017604;28;20522;-89
2023/09/17 07:09:30;;;;;;;40.78;37.35;;;18.10;99.90;;;;;;5017413;28;20040;-90
2023/09/17 07:11:56;;;;;;;45.08;41.10;;;18.10;99.90;;;;;;5033421;28;20199;-90
2023/09/17 07:14:21;;;;;;;45.78;41.72;;;18.20;99.90;;;;;;5033891;28;20120;-90
2023/09/17 07:16:47;;;;;;;41.38;37.67;;;18.20;99.90;;;;;;5034156;28;20037;-90
2023/09/17 07:19:13;;;;;;;41.08;37.50;;;18.20;99.90;;;;;;5033990;28;20045;-91
2023/09/17 07:21:38;;;;;;;43.17;39.53;;;18.20;99.90;;;;;;5017136;28;20037;-91
2023/09/17 07:24:04;;;;;;;30.10;23.90;;;18.20;99.90;;;;;;5033683;28;20036;-90
2023/09/17 07:26:30;;;;;;;44.08;40.28;;;18.20;99.90;;;;;;5034428;28;20044;-90
2023/09/17 07:28:55;;;;;;;44.25;40.45;;;18.20;99.90;;;;;;5017888;28;20104;-90
2023/09/17 07:31:21;;;;;;;41.70;38.10;;;18.20;99.90;;;;;;5033701;28;20033;-90
2023/09/17 07:33:46;;;;;;;42.63;38.65;;;18.20;99.90;;;;;;5033712;28;20520;-90
2023/09/17 07:36:13;;;;;;;43.47;39.60;;;18.20;99.90;;;;;;5033880;28;20037;-89
2023/09/17 07:38:39;;;;;;;42.13;36.85;;;18.20;99.90;;;;;;5017122;28;20127;-90
2023/09/17 07:41:04;;;;;;;42.63;38.92;;;18.20;99.90;;;;;;5034257;28;20179;-90
2023/09/17 07:43:30;;;;;;;42.25;38.58;;;18.20;99.90;;;;;;5025521;28;20032;-89
2023/09/17 07:45:55;;;;;;;40.65;37.17;;;18.20;99.90;;;;;;5017308;28;20110;-90
2023/09/17 07:48:23;;;;;;;40.83;37.13;;;18.20;99.90;;;;;;5033419;28;20051;-90
2023/09/17 07:51:00;;;;;;;41.00;37.35;;;18.30;99.90;;;;;;5017311;28;20063;-90
2023/09/17 07:53:26;;;;;;;39.63;36.33;;;18.30;99.90;;;;;;5036182;28;20053;-89
2023/09/17 07:55:52;;;;;;;38.42;35.03;;;18.30;99.90;;;;;;5036548;28;20411;-89
2023/09/17 07:58:18;;;;;;;37.55;34.35;;;18.30;99.90;;;;;;5010454;28;20073;-88
2023/09/17 08:00:46;;;;;;;28.70;22.98;;;18.40;99.90;;;;;;5035286;28;20037;-90
2023/09/17 08:03:13;;;;;;;38.00;34.50;;;18.40;99.90;;;;;;5042487;28;20037;-90
2023/09/17 08:05:40;;;;;;;39.80;36.40;;;18.40;99.90;;;;;;5023168;28;20041;-90
2023/09/17 08:08:07;;;;;;;38.45;35.15;;;18.50;99.90;;;;;;5040682;28;20053;-90
2023/09/17 08:10:33;;;;;;;40.88;37.40;;;18.60;99.90;;;;;;5017118;28;20103;-90
2023/09/17 08:12:59;;;;;;;39.88;36.25;;;18.60;99.90;;;;;;5033696;28;20056;-90
2023/09/17 08:15:24;;;;;;;41.95;38.35;;;18.60;99.90;;;;;;5033036;28;20045;-90
2023/09/17 08:17:51;;;;;;;42.17;38.58;;;18.60;99.90;;;;;;5016737;28;20041;-90
2023/09/17 08:20:17;;;;;;;41.40;37.83;;;18.70;99.90;;;;;;5016591;28;20503;-89
2023/09/17 08:22:43;;;;;;;42.35;38.72;;;18.70;99.90;;;;;;5033157;28;20171;-89
2023/09/17 08:25:09;;;;;;;41.75;37.97;;;18.70;99.90;;;;;;5024893;28;20037;-89
2023/09/17 08:27:35;;;;;;;39.60;36.13;;;18.70;99.90;;;;;;5043383;28;20514;-90
2023/09/17 08:30:03;;;;;;;42.15;38.35;;;18.80;99.90;;;;;;5026406;28;20049;-90
2023/09/17 08:32:29;;;;;;;41.53;37.92;;;18.80;99.90;;;;;;5042525;28;20053;-90
2023/09/17 08:34:55;;;;;;;41.38;37.75;;;18.80;99.90;;;;;;5042838;28;20045;-90
2023/09/17 08:37:22;;;;;;;39.67;36.38;;;18.90;99.90;;;;;;5036630;28;20423;-90
2023/09/17 08:39:48;;;;;;;40.15;36.55;;;18.90;99.90;;;;;;5036777;28;20094;-91
2023/09/17 08:42:14;;;;;;;39.65;35.90;;;19.00;99.90;;;;;;5038683;28;20044;-90
2023/09/17 08:44:41;;;;;;;39.75;36.22;;;19.10;99.90;;;;;;5012085;28;20160;-91
2023/09/17 08:47:07;;;;;;;39.83;36.17;;;19.10;99.90;;;;;;5019777;28;20041;-90
2023/09/17 08:49:33;;;;;;;38.53;34.90;;;19.20;99.90;;;;;;5042700;28;20024;-90
2023/09/17 08:52:01;;;;;;;39.80;36.40;;;19.20;99.90;;;;;;5044089;28;20585;-90
2023/09/17 08:54:37;;;;;;;41.47;37.88;;;19.20;99.90;;;;;;5042778;28;20116;-90
2023/09/17 08:57:05;;;;;;;37.85;34.35;;;19.30;99.90;;;;;;5043415;28;20400;-91
2023/09/17 08:59:37;;;;;;;28.00;25.02;;;19.30;99.90;;;;;;5044831;28;20495;-92
2023/09/17 09:02:09;;;;;;;35.30;32.13;;;19.30;99.90;;;;;;5043143;28;20041;-90
2023/09/17 09:04:36;;;;;;;38.45;35.17;;;19.20;99.90;;;;;;5040935;28;20045;-90
2023/09/17 09:07:02;;;;;;;38.80;35.35;;;19.30;99.90;;;;;;5042802;28;20140;-90
2023/09/17 09:09:30;;;;;;;37.00;33.75;;;19.40;99.90;;;;;;5042750;28;20104;-91
2023/09/17 09:11:57;;;;;;;35.90;32.58;;;19.40;99.90;;;;;;5042843;28;20063;-90
2023/09/17 09:14:23;;;;;;;35.05;31.98;;;19.40;99.90;;;;;;5038989;28;20041;-91
2023/09/17 09:16:49;;;;;;;34.30;31.35;;;19.40;99.90;;;;;;5035864;28;20385;-91
2023/09/17 09:19:14;;;;;;;36.42;32.88;;;19.50;99.90;;;;;;5019354;28;20488;-90
2023/09/17 09:21:40;;;;;;;34.53;31.35;;;19.50;99.90;;;;;;5020018;28;20036;-90
2023/09/17 09:24:06;;;;;;;33.35;30.17;;;19.40;99.90;;;;;;5019563;28;20094;-90
2023/09/17 09:26:36;;;;;;;34.50;31.33;;;19.40;99.90;;;;;;5035995;28;20125;-89
2023/09/17 09:29:04;;;;;;;34.05;30.95;;;19.40;99.90;;;;;;5036073;28;20072;-90
2023/09/17 09:31:30;;;;;;;33.03;30.08;;;19.40;99.90;;;;;;5028067;28;20087;-90
2023/09/17 09:33:59;;;;;;;33.67;30.65;;;19.40;99.90;;;;;;5036157;28;20041;-90
2023/09/17 09:36:27;;;;;;;32.85;29.95;;;19.40;99.90;;;;;;5035745;28;20046;-90
2023/09/17 09:38:54;;;;;;;33.80;30.70;;;19.40;99.90;;;;;;5015549;28;20041;-90
2023/09/17 09:41:20;;;;;;;33.72;30.50;;;19.40;99.90;;;;;;5035151;28;20041;-90
2023/09/17 09:43:46;;;;;;;33.72;30.55;;;19.40;99.90;;;;;;5035994;28;20048;-91
2023/09/17 09:46:11;;;;;;;33.92;30.83;;;19.50;99.90;;;;;;5018808;28;20521;-91
2023/09/17 09:48:38;;;;;;;33.75;30.40;;;19.50;99.90;;;;;;5035650;28;20075;-91
2023/09/17 09:51:04;;;;;;;33.33;30.13;;;19.50;99.90;;;;;;5018841;28;20041;-91
2023/09/17 09:53:29;;;;;;;32.85;29.85;;;19.50;99.90;;;;;;5035714;28;20063;-91
2023/09/17 09:55:56;;;;;;;32.70;29.60;;;19.50;99.90;;;;;;5035444;28;20045;-91
2023/09/17 09:58:21;;;;;;;31.42;28.50;;;19.50;99.90;;;;;;5034137;28;20044;-89
2023/09/17 10:00:47;;;;;;;35.05;31.90;;;19.60;99.90;;;;;;5018773;28;20040;-90
2023/09/17 10:03:17;;;;;;;31.98;29.08;;;19.70;99.90;;;;;;5018823;28;20411;-91
2023/09/17 10:05:44;;;;;;;34.38;31.17;;;19.80;99.90;;;;;;5035495;28;20041;-89
2023/09/17 10:08:12;;;;;;;33.58;30.50;;;19.80;99.90;;;;;;5018568;28;20046;-90
2023/09/17 10:10:39;;;;;;;33.20;30.10;;;19.90;99.90;;;;;;5018585;28;20066;-90
2023/09/17 10:13:10;;;;;;;33.40;30.30;;;20.00;99.90;;;;;;5033095;28;20473;-89
2023/09/17 10:15:37;;;;;;;34.35;31.23;;;20.00;99.90;;;;;;5034678;28;20535;-90
2023/09/17 10:18:14;;;;;;;33.53;30.15;;;20.10;99.90;;;;;;5034145;28;20413;-90
2023/09/17 10:20:43;;;;;;;33.83;30.55;;;20.10;99.90;;;;;;5017912;28;20041;-91
2023/09/17 10:23:12;;;;;;;34.20;31.10;;;20.10;99.90;;;;;;5018111;28;20124;-91
2023/09/17 10:25:41;;;;;;;31.80;28.65;;;20.10;99.90;;;;;;5034982;28;20108;-90
2023/09/17 10:28:11;;;;;;;34.88;31.58;;;20.10;99.90;;;;;;5034250;28;20072;-91
2023/09/17 10:30:38;;;;;;;33.13;29.90;;;20.10;99.90;;;;;;5034893;28;20127;-90
2023/09/17 10:33:07;;;;;;;32.95;29.88;;;20.10;99.90;;;;;;5034543;28;20045;-90
2023/09/17 10:35:34;;;;;;;32.13;29.08;;;20.20;99.90;;;;;;5018470;28;20091;-91
2023/09/17 10:38:03;;;;;;;30.95;28.23;;;20.10;99.90;;;;;;5034291;28;20136;-90
2023/09/17 10:40:30;;;;;;;32.13;29.15;;;20.10;99.90;;;;;;5034518;28;20064;-90
2023/09/17 10:43:01;;;;;;;31.35;28.45;;;20.10;99.90;;;;;;5035099;28;20095;-90
2023/09/17 10:45:27;;;;;;;34.80;31.25;;;20.10;99.90;;;;;;5034454;28;20037;-91
2023/09/17 10:47:57;;;;;;;32.22;28.98;;;20.20;99.90;;;;;;5034129;28;20045;-91
2023/09/17 10:50:27;;;;;;;32.92;29.70;;;20.20;99.90;;;;;;5034133;28;20083;-90
2023/09/17 10:52:53;;;;;;;31.88;28.88;;;20.30;99.90;;;;;;5014362;28;20080;-91
2023/09/17 10:55:21;;;;;;;33.33;30.02;;;20.40;99.90;;;;;;5017177;28;20073;-90
2023/09/17 10:57:55;;;;;;;32.67;29.48;;;20.60;99.90;;;;;;5017183;28;20045;-90
2023/09/17 11:00:23;;;;;;;33.10;30.00;;;20.80;99.90;;;;;;5017659;28;20068;-91
2023/09/17 11:02:55;;;;;;;33.58;30.48;;;20.90;99.90;;;;;;5034536;28;20078;-90
2023/09/17 11:05:24;;;;;;;32.95;29.88;;;21.00;99.90;;;;;;5033184;28;20037;-91
2023/09/17 11:07:55;;;;;;;32.50;29.40;;;21.00;99.90;;;;;;5034262;28;20048;-91
2023/09/17 11:10:21;;;;;;;32.83;29.73;;;21.10;99.90;;;;;;5018404;28;20428;-91
2023/09/17 11:12:47;;;;;;;32.80;29.60;;;21.10;99.90;;;;;;5017480;28;20033;-91
2023/09/17 11:15:13;;;;;;;33.03;29.95;;;21.20;99.90;;;;;;5034054;28;20033;-91
2023/09/17 11:17:40;;;;;;;31.73;28.73;;;21.20;99.90;;;;;;5016953;28;20174;-90
2023/09/17 11:20:12;;;;;;;31.65;28.75;;;21.20;99.90;;;;;;5033981;28;20056;-90
2023/09/17 11:22:40;;;;;;;31.60;28.48;;;21.30;99.90;;;;;;5033724;28;20044;-90
2023/09/17 11:25:07;;;;;;;31.10;28.10;;;21.30;99.90;;;;;;5017504;28;20045;-91
2023/09/17 11:27:51;;;;;;;30.70;27.90;;;21.30;99.90;;;;;;5018396;28;20037;-91
2023/09/17 11:30:22;;;;;;;32.90;29.90;;;21.40;99.90;;;;;;5024075;28;20048;-90
2023/09/17 11:32:54;;;;;;;30.52;27.55;;;21.40;99.90;;;;;;5024114;28;20123;-89
2023/09/17 11:35:24;;;;;;;34.08;30.88;;;21.50;99.90;;;;;;5040880;28;20041;-90
2023/09/17 11:37:51;;;;;;;32.67;29.63;;;21.50;99.90;;;;;;5040999;28;20033;-90
2023/09/17 11:40:18;;;;;;;30.67;27.85;;;21.50;99.90;;;;;;5022423;28;20033;-90
2023/09/17 11:42:46;;;;;;;31.70;28.73;;;21.50;99.90;;;;;;5042915;28;20119;-90
2023/09/17 11:45:14;;;;;;;31.65;28.73;;;21.60;99.90;;;;;;5020723;28;20032;-91
2023/09/17 11:47:40;;;;;;;31.35;28.40;;;21.60;99.90;;;;;;5039540;28;20462;-89
2023/09/17 11:50:07;;;;;;;31.85;29.05;;;21.60;99.90;;;;;;5040723;28;20051;-90
2023/09/17 11:52:33;;;;;;;32.75;29.65;;;21.60;99.90;;;;;;5040868;28;20083;-90
2023/09/17 11:55:11;;;;;;;33.08;30.05;;;21.60;99.90;;;;;;5040565;28;20068;-90
2023/09/17 11:57:37;;;;;;;32.80;29.50;;;21.70;99.90;;;;;;5040018;28;20443;-90
2023/09/17 12:00:09;;;;;;;31.50;28.60;;;21.70;99.90;;;;;;5040940;28;20496;-90
2023/09/17 12:02:36;;;;;;;30.38;27.48;;;21.80;99.90;;;;;;5021482;28;20078;-90
2023/09/17 12:05:04;;;;;;;32.05;29.05;;;22.00;99.90;;;;;;5019688;28;20069;-90
2023/09/17 12:07:30;;;;;;;32.00;29.00;;;22.20;99.90;;;;;;5024814;28;20048;-90
2023/09/17 12:10:07;;;;;;;31.77;28.77;;;22.40;99.90;;;;;;5041259;28;20067;-90
2023/09/17 12:12:34;;;;;;;30.95;28.05;;;22.60;99.90;;;;;;5033192;28;20098;-90
2023/09/17 12:15:01;;;;;;;31.65;28.58;;;22.70;99.90;;;;;;5030572;28;20115;-90
2023/09/17 12:17:27;;;;;;;31.58;28.67;;;22.70;99.90;;;;;;5029784;28;20037;-89
2023/09/17 12:20:10;;;;;;;31.58;28.60;;;22.70;99.90;;;;;;5015885;28;20044;-90
2023/09/17 12:22:35;;;;;;;31.13;28.33;;;22.80;99.90;;;;;;5019463;28;20543;-89
2023/09/17 12:25:13;;;;;;;32.47;29.55;;;22.90;99.90;;;;;;5021218;28;20037;-89
2023/09/17 12:27:46;;;;;;;34.70;31.58;;;22.90;99.90;;;;;;5017830;28;20068;-90